sensor_id;sensor_type;location;lat;lon;timestamp;temperature;humidity
29241;DHT22;16268;49.880;8.648;2023-01-20T00:02:25;1.80;99.90
29241;DHT22;16268;49.880;8.648;2023-01-20T00:04:50;1.80;99.90
29241;DHT22;16268;49.880;8.648;2023-01-20T00:07:16;1.80;99.90
29241;DHT22;16268;49.880;8.648;2023-01-20T00:09:41;1.80;99.90
29241;DHT22;16268;49.880;8.648;2023-01-20T00:12:07;1.80;99.90
29241;DHT22;16268;49.880;8.648;2023-01-20T00:14:32;1.80;99.90
29241;DHT22;16268;49.880;8.648;2023-01-20T00:16:58;1.70;99.90
29241;DHT22;16268;49.880;8.648;2023-01-20T00:19:25;1.80;99.90
29241;DHT22;16268;49.880;8.648;2023-01-20T00:21:51;1.70;99.90
29241;DHT22;16268;49.880;8.648;2023-01-20T00:24:17;1.70;99.90
29241;DHT22;16268;49.880;8.648;2023-01-20T00:26:43;1.70;99.90
29241;DHT22;16268;49.880;8.648;2023-01-20T00:29:08;1.70;99.90
29241;DHT22;16268;49.880;8.648;2023-01-20T00:31:34;1.70;99.90
29241;DHT22;16268;49.880;8.648;2023-01-20T00:34:01;1.70;99.90
29241;DHT22;16268;49.880;8.648;2023-01-20T00:36:29;1.70;99.90
29241;DHT22;16268;49.880;8.648;2023-01-20T00:38:59;1.60;99.90
29241;DHT22;16268;49.880;8.648;2023-01-20T00:41:24;1.60;99.90
29241;DHT22;16268;49.880;8.648;2023-01-20T00:43:50;1.70;99.90
29241;DHT22;16268;49.880;8.648;2023-01-20T00:46:16;1.60;99.90
29241;DHT22;16268;49.880;8.648;2023-01-20T00:48:41;1.60;99.90
29241;DHT22;16268;49.880;8.648;2023-01-20T00:51:07;1.60;99.90
29241;DHT22;16268;49.880;8.648;2023-01-20T00:53:33;1.60;99.90
29241;DHT22;16268;49.880;8.648;2023-01-20T00:55:59;1.60;99.90
29241;DHT22;16268;49.880;8.648;2023-01-20T00:58:25;1.60;99.90
29241;DHT22;16268;49.880;8.648;2023-01-20T01:00:52;1.60;99.90
29241;DHT22;16268;49.880;8.648;2023-01-20T01:03:18;1.50;99.90
29241;DHT22;16268;49.880;8.648;2023-01-20T01:05:44;1.50;99.90
29241;DHT22;16268;49.880;8.648;2023-01-20T01:08:09;1.50;99.90
29241;DHT22;16268;49.880;8.648;2023-01-20T01:10:36;1.50;99.90
29241;DHT22;16268;49.880;8.648;2023-01-20T01:13:02;1.50;99.90
29241;DHT22;16268;49.880;8.648;2023-01-20T01:15:28;1.50;99.90
29241;DHT22;16268;49.880;8.648;2023-01-20T01:17:55;1.40;99.90
29241;DHT22;16268;49.880;8.648;2023-01-20T01:20:21;1.50;99.90
29241;DHT22;16268;49.880;8.648;2023-01-20T01:22:47;1.40;99.90
29241;DHT22;16268;49.880;8.648;2023-01-20T01:25:12;1.40;99.90
29241;DHT22;16268;49.880;8.648;2023-01-20T01:27:38;1.40;99.90
29241;DHT22;16268;49.880;8.648;2023-01-20T01:30:04;1.40;99.90
29241;DHT22;16268;49.880;8.648;2023-01-20T01:32:30;1.40;99.90
29241;DHT22;16268;49.880;8.648;2023-01-20T01:34:55;1.40;99.90
29241;DHT22;16268;49.880;8.648;2023-01-20T01:37:21;1.40;99.90
29241;DHT22;16268;49.880;8.648;2023-01-20T01:39:46;1.30;99.90
29241;DHT22;16268;49.880;8.648;2023-01-20T01:42:14;1.30;99.90
29241;DHT22;16268;49.880;8.648;2023-01-20T01:45:40;1.30;99.90
29241;DHT22;16268;49.880;8.648;2023-01-20T01:48:06;1.30;99.90
29241;DHT22;16268;49.880;8.648;2023-01-20T01:50:46;1.30;99.90
29241;DHT22;16268;49.880;8.648;2023-01-20T01:53:14;1.20;99.90
29241;DHT22;16268;49.880;8.648;2023-01-20T01:55:46;1.10;99.90
29241;DHT22;16268;49.880;8.648;2023-01-20T01:58:16;1.20;99.90
29241;DHT22;16268;49.880;8.648;2023-01-20T02:00:44;1.10;99.90
29241;DHT22;16268;49.880;8.648;2023-01-20T02:03:10;1.10;99.90
29241;DHT22;16268;49.880;8.648;2023-01-20T02:05:37;1.10;99.90
29241;DHT22;16268;49.880;8.648;2023-01-20T02:08:04;1.10;99.90
29241;DHT22;16268;49.880;8.648;2023-01-20T02:10:31;1.10;99.90
29241;DHT22;16268;49.880;8.648;2023-01-20T02:12:57;1.10;99.90
29241;DHT22;16268;49.880;8.648;2023-01-20T02:15:27;1.10;99.90
29241;DHT22;16268;49.880;8.648;2023-01-20T02:18:11;1.10;99.90
29241;DHT22;16268;49.880;8.648;2023-01-20T02:24:39;1.10;99.90
29241;DHT22;16268;49.880;8.648;2023-01-20T02:27:12;1.10;99.90
29241;DHT22;16268;49.880;8.648;2023-01-20T02:32:54;1.10;99.90
29241;DHT22;16268;49.880;8.648;2023-01-20T02:35:39;1.10;99.90
29241;DHT22;16268;49.880;8.648;2023-01-20T02:43:33;1.20;99.90
29241;DHT22;16268;49.880;8.648;2023-01-20T02:46:07;1.10;99.90
29241;DHT22;16268;49.880;8.648;2023-01-20T02:48:41;1.10;99.90
29241;DHT22;16268;49.880;8.648;2023-01-20T02:51:13;1.20;99.90
29241;DHT22;16268;49.880;8.648;2023-01-20T02:54:09;1.30;99.90
29241;DHT22;16268;49.880;8.648;2023-01-20T02:56:36;1.40;99.90
29241;DHT22;16268;49.880;8.648;2023-01-20T02:59:12;1.50;99.90
29241;DHT22;16268;49.880;8.648;2023-01-20T03:01:44;1.60;99.90
29241;DHT22;16268;49.880;8.648;2023-01-20T03:04:12;1.60;99.90
29241;DHT22;16268;49.880;8.648;2023-01-20T03:06:46;1.60;99.90
29241;DHT22;16268;49.880;8.648;2023-01-20T03:09:17;1.60;99.90
29241;DHT22;16268;49.880;8.648;2023-01-20T03:12:00;1.60;99.90
29241;DHT22;16268;49.880;8.648;2023-01-20T03:14:28;1.60;99.90
29241;DHT22;16268;49.880;8.648;2023-01-20T03:16:54;1.60;99.90
29241;DHT22;16268;49.880;8.648;2023-01-20T03:19:20;1.60;99.90
29241;DHT22;16268;49.880;8.648;2023-01-20T03:21:46;1.70;99.90
29241;DHT22;16268;49.880;8.648;2023-01-20T03:24:12;1.70;99.90
29241;DHT22;16268;49.880;8.648;2023-01-20T03:26:38;1.70;99.90
29241;DHT22;16268;49.880;8.648;2023-01-20T03:29:07;1.70;99.90
29241;DHT22;16268;49.880;8.648;2023-01-20T03:31:43;1.70;99.90
29241;DHT22;16268;49.880;8.648;2023-01-20T03:34:13;1.70;99.90
29241;DHT22;16268;49.880;8.648;2023-01-20T03:36:41;1.70;99.90
29241;DHT22;16268;49.880;8.648;2023-01-20T03:39:08;1.60;99.90
29241;DHT22;16268;49.880;8.648;2023-01-20T03:47:09;1.50;99.90
29241;DHT22;16268;49.880;8.648;2023-01-20T03:49:50;1.50;99.90
29241;DHT22;16268;49.880;8.648;2023-01-20T03:55:13;1.40;99.90
29241;DHT22;16268;49.880;8.648;2023-01-20T03:58:01;1.40;99.90
29241;DHT22;16268;49.880;8.648;2023-01-20T04:00:32;1.40;99.90
29241;DHT22;16268;49.880;8.648;2023-01-20T04:03:01;1.30;99.90
29241;DHT22;16268;49.880;8.648;2023-01-20T04:05:28;1.30;99.90
29241;DHT22;16268;49.880;8.648;2023-01-20T04:07:56;1.30;99.90
29241;DHT22;16268;49.880;8.648;2023-01-20T04:10:25;1.30;99.90
29241;DHT22;16268;49.880;8.648;2023-01-20T04:12:52;1.30;99.90
29241;DHT22;16268;49.880;8.648;2023-01-20T04:15:18;1.20;99.90
29241;DHT22;16268;49.880;8.648;2023-01-20T04:17:46;1.20;99.90
29241;DHT22;16268;49.880;8.648;2023-01-20T04:20:12;1.30;99.90
29241;DHT22;16268;49.880;8.648;2023-01-20T04:22:51;1.30;99.90
29241;DHT22;16268;49.880;8.648;2023-01-20T04:25:28;1.30;99.90
29241;DHT22;16268;49.880;8.648;2023-01-20T04:27:54;1.30;99.90
29241;DHT22;16268;49.880;8.648;2023-01-20T04:30:20;1.20;99.90
29241;DHT22;16268;49.880;8.648;2023-01-20T04:32:45;1.20;99.90
29241;DHT22;16268;49.880;8.648;2023-01-20T04:35:13;1.20;99.90
29241;DHT22;16268;49.880;8.648;2023-01-20T04:37:39;1.20;99.90
29241;DHT22;16268;49.880;8.648;2023-01-20T04:40:05;1.10;99.90
29241;DHT22;16268;49.880;8.648;2023-01-20T04:42:31;1.10;99.90
29241;DHT22;16268;49.880;8.648;2023-01-20T04:44:56;1.10;99.90
29241;DHT22;16268;49.880;8.648;2023-01-20T04:47:22;1.00;99.90
29241;DHT22;16268;49.880;8.648;2023-01-20T04:49:47;1.00;99.90
29241;DHT22;16268;49.880;8.648;2023-01-20T04:52:13;1.00;99.90
29241;DHT22;16268;49.880;8.648;2023-01-20T04:54:38;1.00;99.90
29241;DHT22;16268;49.880;8.648;2023-01-20T04:57:04;0.90;99.90
29241;DHT22;16268;49.880;8.648;2023-01-20T04:59:29;0.90;99.90
29241;DHT22;16268;49.880;8.648;2023-01-20T05:01:55;0.90;99.90
29241;DHT22;16268;49.880;8.648;2023-01-20T05:04:21;0.80;99.90
29241;DHT22;16268;49.880;8.648;2023-01-20T05:06:46;0.80;99.90
29241;DHT22;16268;49.880;8.648;2023-01-20T05:09:14;0.70;99.90
29241;DHT22;16268;49.880;8.648;2023-01-20T05:11:40;0.70;99.90
29241;DHT22;16268;49.880;8.648;2023-01-20T05:14:06;0.70;99.90
29241;DHT22;16268;49.880;8.648;2023-01-20T05:16:31;0.70;99.90
29241;DHT22;16268;49.880;8.648;2023-01-20T05:18:58;0.70;99.90
29241;DHT22;16268;49.880;8.648;2023-01-20T05:21:24;0.70;99.90
29241;DHT22;16268;49.880;8.648;2023-01-20T05:23:52;0.70;99.90
29241;DHT22;16268;49.880;8.648;2023-01-20T05:26:18;0.60;99.90
29241;DHT22;16268;49.880;8.648;2023-01-20T05:28:44;0.50;99.90
29241;DHT22;16268;49.880;8.648;2023-01-20T05:31:10;0.60;99.90
29241;DHT22;16268;49.880;8.648;2023-01-20T05:33:35;0.50;99.90
29241;DHT22;16268;49.880;8.648;2023-01-20T05:36:07;0.50;99.90
29241;DHT22;16268;49.880;8.648;2023-01-20T05:38:33;0.60;99.90
29241;DHT22;16268;49.880;8.648;2023-01-20T05:41:04;0.60;99.90
29241;DHT22;16268;49.880;8.648;2023-01-20T05:43:30;0.50;99.90
29241;DHT22;16268;49.880;8.648;2023-01-20T05:45:56;0.50;99.90
29241;DHT22;16268;49.880;8.648;2023-01-20T05:48:21;0.50;99.90
29241;DHT22;16268;49.880;8.648;2023-01-20T05:50:47;0.50;99.90
29241;DHT22;16268;49.880;8.648;2023-01-20T05:53:13;0.40;99.90
29241;DHT22;16268;49.880;8.648;2023-01-20T05:55:39;0.50;99.90
29241;DHT22;16268;49.880;8.648;2023-01-20T05:58:05;0.40;99.90
29241;DHT22;16268;49.880;8.648;2023-01-20T06:00:31;0.50;99.90
29241;DHT22;16268;49.880;8.648;2023-01-20T06:02:57;0.50;99.90
29241;DHT22;16268;49.880;8.648;2023-01-20T06:05:23;0.50;99.90
29241;DHT22;16268;49.880;8.648;2023-01-20T06:07:48;0.40;99.90
29241;DHT22;16268;49.880;8.648;2023-01-20T06:10:15;0.40;99.90
29241;DHT22;16268;49.880;8.648;2023-01-20T06:12:41;0.30;99.90
29241;DHT22;16268;49.880;8.648;2023-01-20T06:15:07;0.20;99.90
29241;DHT22;16268;49.880;8.648;2023-01-20T06:17:33;0.20;99.90
29241;DHT22;16268;49.880;8.648;2023-01-20T06:19:58;0.20;99.90
29241;DHT22;16268;49.880;8.648;2023-01-20T06:22:25;0.20;99.90
29241;DHT22;16268;49.880;8.648;2023-01-20T06:24:50;0.20;99.90
29241;DHT22;16268;49.880;8.648;2023-01-20T06:27:17;0.30;99.90
29241;DHT22;16268;49.880;8.648;2023-01-20T06:29:43;0.30;99.90
29241;DHT22;16268;49.880;8.648;2023-01-20T06:32:09;0.30;99.90
29241;DHT22;16268;49.880;8.648;2023-01-20T06:34:35;0.30;99.90
29241;DHT22;16268;49.880;8.648;2023-01-20T06:37:01;0.30;99.90
29241;DHT22;16268;49.880;8.648;2023-01-20T06:39:27;0.50;99.90
29241;DHT22;16268;49.880;8.648;2023-01-20T06:41:56;0.50;99.90
29241;DHT22;16268;49.880;8.648;2023-01-20T06:44:22;0.60;99.90
29241;DHT22;16268;49.880;8.648;2023-01-20T06:46:47;0.60;99.90
29241;DHT22;16268;49.880;8.648;2023-01-20T06:49:13;0.60;99.90
29241;DHT22;16268;49.880;8.648;2023-01-20T06:51:38;0.70;99.90
29241;DHT22;16268;49.880;8.648;2023-01-20T06:54:04;0.70;99.90
29241;DHT22;16268;49.880;8.648;2023-01-20T06:56:29;0.80;99.90
29241;DHT22;16268;49.880;8.648;2023-01-20T06:58:55;0.80;99.90
29241;DHT22;16268;49.880;8.648;2023-01-20T07:01:24;0.90;99.90
29241;DHT22;16268;49.880;8.648;2023-01-20T07:03:50;0.90;99.90
29241;DHT22;16268;49.880;8.648;2023-01-20T07:06:33;0.90;99.90
29241;DHT22;16268;49.880;8.648;2023-01-20T07:09:00;0.80;99.90
29241;DHT22;16268;49.880;8.648;2023-01-20T07:11:27;0.90;99.90
29241;DHT22;16268;49.880;8.648;2023-01-20T07:13:53;0.80;99.90
29241;DHT22;16268;49.880;8.648;2023-01-20T07:16:18;0.80;99.90
29241;DHT22;16268;49.880;8.648;2023-01-20T07:18:47;1.00;99.90
29241;DHT22;16268;49.880;8.648;2023-01-20T07:21:13;1.10;99.90
29241;DHT22;16268;49.880;8.648;2023-01-20T07:23:39;1.10;99.90
29241;DHT22;16268;49.880;8.648;2023-01-20T07:26:07;1.10;99.90
29241;DHT22;16268;49.880;8.648;2023-01-20T07:28:33;1.20;99.90
29241;DHT22;16268;49.880;8.648;2023-01-20T07:31:10;1.30;99.90
29241;DHT22;16268;49.880;8.648;2023-01-20T07:33:37;1.30;99.90
29241;DHT22;16268;49.880;8.648;2023-01-20T07:36:03;1.40;99.90
29241;DHT22;16268;49.880;8.648;2023-01-20T07:38:29;1.40;99.90
29241;DHT22;16268;49.880;8.648;2023-01-20T07:40:58;1.40;99.90
29241;DHT22;16268;49.880;8.648;2023-01-20T07:43:24;1.40;99.90
29241;DHT22;16268;49.880;8.648;2023-01-20T07:46:00;1.50;99.90
29241;DHT22;16268;49.880;8.648;2023-01-20T07:48:28;1.70;99.90
29241;DHT22;16268;49.880;8.648;2023-01-20T07:50:55;1.80;99.90
29241;DHT22;16268;49.880;8.648;2023-01-20T07:53:34;1.80;99.90
29241;DHT22;16268;49.880;8.648;2023-01-20T07:56:09;1.80;99.90
29241;DHT22;16268;49.880;8.648;2023-01-20T07:58:35;1.70;99.90
29241;DHT22;16268;49.880;8.648;2023-01-20T08:01:08;1.80;99.90
29241;DHT22;16268;49.880;8.648;2023-01-20T08:03:34;1.80;99.90
29241;DHT22;16268;49.880;8.648;2023-01-20T08:06:04;1.90;99.90
29241;DHT22;16268;49.880;8.648;2023-01-20T08:08:31;1.90;99.90
29241;DHT22;16268;49.880;8.648;2023-01-20T08:10:57;1.90;99.90
29241;DHT22;16268;49.880;8.648;2023-01-20T08:13:23;2.00;99.90
29241;DHT22;16268;49.880;8.648;2023-01-20T08:15:49;2.00;99.90
29241;DHT22;16268;49.880;8.648;2023-01-20T08:18:14;2.10;99.90
29241;DHT22;16268;49.880;8.648;2023-01-20T08:20:40;2.10;99.90
29241;DHT22;16268;49.880;8.648;2023-01-20T08:23:06;2.10;99.90
29241;DHT22;16268;49.880;8.648;2023-01-20T08:25:31;2.00;99.90
29241;DHT22;16268;49.880;8.648;2023-01-20T08:27:57;2.00;99.90
29241;DHT22;16268;49.880;8.648;2023-01-20T08:30:22;2.10;99.90
29241;DHT22;16268;49.880;8.648;2023-01-20T08:32:48;2.20;99.90
29241;DHT22;16268;49.880;8.648;2023-01-20T08:35:14;2.20;99.90
29241;DHT22;16268;49.880;8.648;2023-01-20T08:37:39;2.20;99.90
29241;DHT22;16268;49.880;8.648;2023-01-20T08:40:09;2.30;99.90
29241;DHT22;16268;49.880;8.648;2023-01-20T08:42:35;2.20;99.90
29241;DHT22;16268;49.880;8.648;2023-01-20T08:45:02;2.30;99.90
29241;DHT22;16268;49.880;8.648;2023-01-20T08:47:28;2.40;99.90
29241;DHT22;16268;49.880;8.648;2023-01-20T08:49:53;2.50;99.90
29241;DHT22;16268;49.880;8.648;2023-01-20T08:52:19;2.60;99.90
29241;DHT22;16268;49.880;8.648;2023-01-20T08:54:45;2.70;99.90
29241;DHT22;16268;49.880;8.648;2023-01-20T08:57:10;2.70;99.90
29241;DHT22;16268;49.880;8.648;2023-01-20T08:59:36;2.60;99.90
29241;DHT22;16268;49.880;8.648;2023-01-20T09:02:02;2.60;99.90
29241;DHT22;16268;49.880;8.648;2023-01-20T09:04:27;2.60;99.90
29241;DHT22;16268;49.880;8.648;2023-01-20T09:06:53;2.70;99.90
29241;DHT22;16268;49.880;8.648;2023-01-20T09:09:20;2.80;99.90
29241;DHT22;16268;49.880;8.648;2023-01-20T09:11:46;2.90;99.90
29241;DHT22;16268;49.880;8.648;2023-01-20T09:14:23;2.90;99.90
29241;DHT22;16268;49.880;8.648;2023-01-20T09:16:49;3.10;99.90
29241;DHT22;16268;49.880;8.648;2023-01-20T09:19:15;3.00;99.90
29241;DHT22;16268;49.880;8.648;2023-01-20T09:21:42;2.90;99.90
29241;DHT22;16268;49.880;8.648;2023-01-20T09:24:08;2.90;99.90
29241;DHT22;16268;49.880;8.648;2023-01-20T09:26:33;2.70;99.90
29241;DHT22;16268;49.880;8.648;2023-01-20T09:29:11;2.60;99.90
29241;DHT22;16268;49.880;8.648;2023-01-20T09:31:38;2.50;99.90
29241;DHT22;16268;49.880;8.648;2023-01-20T09:34:05;2.40;99.90
29241;DHT22;16268;49.880;8.648;2023-01-20T09:36:30;2.40;99.90
29241;DHT22;16268;49.880;8.648;2023-01-20T09:38:56;2.70;99.90
29241;DHT22;16268;49.880;8.648;2023-01-20T09:41:47;3.50;99.90
29241;DHT22;16268;49.880;8.648;2023-01-20T09:47:28;5.10;99.90
29241;DHT22;16268;49.880;8.648;2023-01-20T09:50:20;5.60;99.90
29241;DHT22;16268;49.880;8.648;2023-01-20T09:53:15;6.20;99.90
29241;DHT22;16268;49.880;8.648;2023-01-20T10:06:33;6.50;99.90
29241;DHT22;16268;49.880;8.648;2023-01-20T10:09:20;6.60;99.90
29241;DHT22;16268;49.880;8.648;2023-01-20T10:11:51;6.50;99.90
29241;DHT22;16268;49.880;8.648;2023-01-20T10:14:30;6.50;99.90
29241;DHT22;16268;49.880;8.648;2023-01-20T10:17:29;6.40;99.90
29241;DHT22;16268;49.880;8.648;2023-01-20T10:20:02;6.30;99.90
29241;DHT22;16268;49.880;8.648;2023-01-20T10:25:20;6.10;99.90
29241;DHT22;16268;49.880;8.648;2023-01-20T10:28:02;5.70;99.90
29241;DHT22;16268;49.880;8.648;2023-01-20T10:30:31;5.50;99.90
29241;DHT22;16268;49.880;8.648;2023-01-20T10:33:17;5.40;99.90
29241;DHT22;16268;49.880;8.648;2023-01-20T10:35:49;5.40;99.90
29241;DHT22;16268;49.880;8.648;2023-01-20T10:43:31;5.40;99.90
29241;DHT22;16268;49.880;8.648;2023-01-20T10:51:41;5.80;99.90
29241;DHT22;16268;49.880;8.648;2023-01-20T10:57:01;6.00;99.90
29241;DHT22;16268;49.880;8.648;2023-01-20T10:59:32;6.20;99.90
29241;DHT22;16268;49.880;8.648;2023-01-20T11:02:08;6.20;99.90
29241;DHT22;16268;49.880;8.648;2023-01-20T11:04:38;6.20;99.90
29241;DHT22;16268;49.880;8.648;2023-01-20T11:07:14;6.10;99.90
29241;DHT22;16268;49.880;8.648;2023-01-20T11:09:40;6.10;99.90
29241;DHT22;16268;49.880;8.648;2023-01-20T11:12:13;6.10;99.90
29241;DHT22;16268;49.880;8.648;2023-01-20T11:14:40;6.10;99.90
29241;DHT22;16268;49.880;8.648;2023-01-20T11:17:07;6.10;99.90
29241;DHT22;16268;49.880;8.648;2023-01-20T11:19:51;6.00;99.90
29241;DHT22;16268;49.880;8.648;2023-01-20T11:22:29;6.00;99.90
29241;DHT22;16268;49.880;8.648;2023-01-20T11:24:57;6.00;99.90
29241;DHT22;16268;49.880;8.648;2023-01-20T11:27:27;6.00;99.90
29241;DHT22;16268;49.880;8.648;2023-01-20T11:30:03;6.10;99.90
29241;DHT22;16268;49.880;8.648;2023-01-20T11:32:35;6.10;99.90
29241;DHT22;16268;49.880;8.648;2023-01-20T11:35:21;6.20;99.90
29241;DHT22;16268;49.880;8.648;2023-01-20T11:37:47;6.30;99.90
29241;DHT22;16268;49.880;8.648;2023-01-20T11:40:20;6.40;99.90
29241;DHT22;16268;49.880;8.648;2023-01-20T11:42:48;6.40;99.90
29241;DHT22;16268;49.880;8.648;2023-01-20T11:45:27;6.30;99.90
29241;DHT22;16268;49.880;8.648;2023-01-20T11:50:30;5.60;99.90
29241;DHT22;16268;49.880;8.648;2023-01-20T11:53:18;5.40;99.90
29241;DHT22;16268;49.880;8.648;2023-01-20T11:55:53;5.30;99.90
29241;DHT22;16268;49.880;8.648;2023-01-20T11:58:22;5.20;99.90
29241;DHT22;16268;49.880;8.648;2023-01-20T12:00:50;5.20;99.90
29241;DHT22;16268;49.880;8.648;2023-01-20T12:06:29;5.40;99.90
29241;DHT22;16268;49.880;8.648;2023-01-20T12:09:02;5.30;99.90
29241;DHT22;16268;49.880;8.648;2023-01-20T12:11:36;5.20;99.90
29241;DHT22;16268;49.880;8.648;2023-01-20T12:14:48;5.20;99.90
29241;DHT22;16268;49.880;8.648;2023-01-20T12:23:17;5.50;99.90
29241;DHT22;16268;49.880;8.648;2023-01-20T12:31:17;5.10;99.90
29241;DHT22;16268;49.880;8.648;2023-01-20T12:33:48;5.00;99.90
29241;DHT22;16268;49.880;8.648;2023-01-20T12:36:21;4.90;99.90
29241;DHT22;16268;49.880;8.648;2023-01-20T12:44:39;4.90;99.90
29241;DHT22;16268;49.880;8.648;2023-01-20T12:55:32;4.90;99.90
29241;DHT22;16268;49.880;8.648;2023-01-20T13:00:39;4.80;99.90
29241;DHT22;16268;49.880;8.648;2023-01-20T13:04:20;4.80;99.90
29241;DHT22;16268;49.880;8.648;2023-01-20T13:12:05;4.90;99.90
29241;DHT22;16268;49.880;8.648;2023-01-20T13:14:36;5.00;99.90
29241;DHT22;16268;49.880;8.648;2023-01-20T13:19:40;5.20;99.90
29241;DHT22;16268;49.880;8.648;2023-01-20T13:22:10;5.20;99.90
29241;DHT22;16268;49.880;8.648;2023-01-20T13:24:38;5.20;99.90
29241;DHT22;16268;49.880;8.648;2023-01-20T13:27:05;5.20;99.90
29241;DHT22;16268;49.880;8.648;2023-01-20T13:32:03;5.20;99.90
29241;DHT22;16268;49.880;8.648;2023-01-20T13:34:31;5.20;99.90
29241;DHT22;16268;49.880;8.648;2023-01-20T13:39:44;5.20;99.90
29241;DHT22;16268;49.880;8.648;2023-01-20T13:50:28;5.00;99.90
29241;DHT22;16268;49.880;8.648;2023-01-20T13:58:27;4.70;99.90
29241;DHT22;16268;49.880;8.648;2023-01-20T14:01:01;4.80;99.90
29241;DHT22;16268;49.880;8.648;2023-01-20T14:03:37;4.80;99.90
29241;DHT22;16268;49.880;8.648;2023-01-20T14:06:18;4.80;99.90
29241;DHT22;16268;49.880;8.648;2023-01-20T14:08:47;4.70;99.90
29241;DHT22;16268;49.880;8.648;2023-01-20T14:11:17;4.70;99.90
29241;DHT22;16268;49.880;8.648;2023-01-20T14:19:14;4.60;99.90
29241;DHT22;16268;49.880;8.648;2023-01-20T14:21:42;4.70;99.90
29241;DHT22;16268;49.880;8.648;2023-01-20T14:27:26;4.70;99.90
29241;DHT22;16268;49.880;8.648;2023-01-20T14:29:55;4.70;99.90
29241;DHT22;16268;49.880;8.648;2023-01-20T14:32:32;4.70;99.90
29241;DHT22;16268;49.880;8.648;2023-01-20T14:34:58;4.70;99.90
29241;DHT22;16268;49.880;8.648;2023-01-20T14:37:33;4.80;99.90
29241;DHT22;16268;49.880;8.648;2023-01-20T14:40:05;4.90;99.90
29241;DHT22;16268;49.880;8.648;2023-01-20T14:42:37;4.80;99.90
29241;DHT22;16268;49.880;8.648;2023-01-20T14:45:19;4.80;99.90
29241;DHT22;16268;49.880;8.648;2023-01-20T14:47:46;4.90;99.90
29241;DHT22;16268;49.880;8.648;2023-01-20T14:50:13;4.90;99.90
29241;DHT22;16268;49.880;8.648;2023-01-20T14:52:39;4.90;99.90
29241;DHT22;16268;49.880;8.648;2023-01-20T14:55:05;4.90;99.90
29241;DHT22;16268;49.880;8.648;2023-01-20T14:57:32;4.90;99.90
29241;DHT22;16268;49.880;8.648;2023-01-20T15:02:48;5.00;99.90
29241;DHT22;16268;49.880;8.648;2023-01-20T15:10:37;4.80;99.90
29241;DHT22;16268;49.880;8.648;2023-01-20T15:13:03;4.70;99.90
29241;DHT22;16268;49.880;8.648;2023-01-20T15:15:32;4.70;99.90
29241;DHT22;16268;49.880;8.648;2023-01-20T15:20:38;4.70;99.90
29241;DHT22;16268;49.880;8.648;2023-01-20T15:23:18;4.70;99.90
29241;DHT22;16268;49.880;8.648;2023-01-20T15:25:44;4.60;99.90
29241;DHT22;16268;49.880;8.648;2023-01-20T15:28:27;4.50;99.90
29241;DHT22;16268;49.880;8.648;2023-01-20T15:30:55;4.40;99.90
29241;DHT22;16268;49.880;8.648;2023-01-20T15:33:23;4.40;99.90
29241;DHT22;16268;49.880;8.648;2023-01-20T15:35:54;4.40;99.90
29241;DHT22;16268;49.880;8.648;2023-01-20T15:38:20;4.30;99.90
29241;DHT22;16268;49.880;8.648;2023-01-20T15:40:46;4.30;99.90
29241;DHT22;16268;49.880;8.648;2023-01-20T15:43:16;4.20;99.90
29241;DHT22;16268;49.880;8.648;2023-01-20T15:45:42;4.20;99.90
29241;DHT22;16268;49.880;8.648;2023-01-20T15:48:26;4.20;99.90
29241;DHT22;16268;49.880;8.648;2023-01-20T15:50:51;4.20;99.90
29241;DHT22;16268;49.880;8.648;2023-01-20T15:53:17;4.20;99.90
29241;DHT22;16268;49.880;8.648;2023-01-20T15:55:50;4.30;99.90
29241;DHT22;16268;49.880;8.648;2023-01-20T15:58:29;4.30;99.90
29241;DHT22;16268;49.880;8.648;2023-01-20T16:00:58;4.30;99.90
29241;DHT22;16268;49.880;8.648;2023-01-20T16:03:24;4.20;99.90
29241;DHT22;16268;49.880;8.648;2023-01-20T16:05:52;4.20;99.90
29241;DHT22;16268;49.880;8.648;2023-01-20T16:08:23;4.10;99.90
29241;DHT22;16268;49.880;8.648;2023-01-20T16:10:49;4.10;99.90
29241;DHT22;16268;49.880;8.648;2023-01-20T16:13:15;4.10;99.90
29241;DHT22;16268;49.880;8.648;2023-01-20T16:15:41;4.10;99.90
29241;DHT22;16268;49.880;8.648;2023-01-20T16:18:12;4.00;99.90
29241;DHT22;16268;49.880;8.648;2023-01-20T16:20:39;4.00;99.90
29241;DHT22;16268;49.880;8.648;2023-01-20T16:23:05;4.00;99.90
29241;DHT22;16268;49.880;8.648;2023-01-20T16:25:30;4.00;99.90
29241;DHT22;16268;49.880;8.648;2023-01-20T16:27:57;4.00;99.90
29241;DHT22;16268;49.880;8.648;2023-01-20T16:30:24;3.90;99.90
29241;DHT22;16268;49.880;8.648;2023-01-20T16:32:49;3.80;99.90
29241;DHT22;16268;49.880;8.648;2023-01-20T16:35:16;3.70;99.90
29241;DHT22;16268;49.880;8.648;2023-01-20T16:37:44;3.60;99.90
29241;DHT22;16268;49.880;8.648;2023-01-20T16:40:18;3.70;99.90
29241;DHT22;16268;49.880;8.648;2023-01-20T16:42:45;3.70;99.90
29241;DHT22;16268;49.880;8.648;2023-01-20T16:45:21;3.70;99.90
29241;DHT22;16268;49.880;8.648;2023-01-20T16:47:47;3.60;99.90
29241;DHT22;16268;49.880;8.648;2023-01-20T16:50:13;3.50;99.90
29241;DHT22;16268;49.880;8.648;2023-01-20T16:52:38;3.50;99.90
29241;DHT22;16268;49.880;8.648;2023-01-20T16:55:04;3.50;99.90
29241;DHT22;16268;49.880;8.648;2023-01-20T16:57:30;3.60;99.90
29241;DHT22;16268;49.880;8.648;2023-01-20T16:59:55;3.70;99.90
29241;DHT22;16268;49.880;8.648;2023-01-20T17:02:21;3.60;99.90
29241;DHT22;16268;49.880;8.648;2023-01-20T17:04:46;3.50;99.90
29241;DHT22;16268;49.880;8.648;2023-01-20T17:07:12;3.40;99.90
29241;DHT22;16268;49.880;8.648;2023-01-20T17:09:37;3.30;99.90
29241;DHT22;16268;49.880;8.648;2023-01-20T17:12:03;3.30;99.90
29241;DHT22;16268;49.880;8.648;2023-01-20T17:14:29;3.20;99.90
29241;DHT22;16268;49.880;8.648;2023-01-20T17:16:54;3.20;99.90
29241;DHT22;16268;49.880;8.648;2023-01-20T17:19:22;3.20;99.90
29241;DHT22;16268;49.880;8.648;2023-01-20T17:21:47;3.20;99.90
29241;DHT22;16268;49.880;8.648;2023-01-20T17:24:14;3.20;99.90
29241;DHT22;16268;49.880;8.648;2023-01-20T17:26:39;3.10;99.90
29241;DHT22;16268;49.880;8.648;2023-01-20T17:29:06;3.20;99.90
29241;DHT22;16268;49.880;8.648;2023-01-20T17:31:33;3.30;99.90
29241;DHT22;16268;49.880;8.648;2023-01-20T17:34:04;3.40;99.90
29241;DHT22;16268;49.880;8.648;2023-01-20T17:36:30;3.40;99.90
29241;DHT22;16268;49.880;8.648;2023-01-20T17:38:59;3.50;99.90
29241;DHT22;16268;49.880;8.648;2023-01-20T17:41:26;3.50;99.90
29241;DHT22;16268;49.880;8.648;2023-01-20T17:43:51;3.50;99.90
29241;DHT22;16268;49.880;8.648;2023-01-20T17:46:22;3.60;99.90
29241;DHT22;16268;49.880;8.648;2023-01-20T17:48:49;3.60;99.90
29241;DHT22;16268;49.880;8.648;2023-01-20T17:51:17;3.60;99.90
29241;DHT22;16268;49.880;8.648;2023-01-20T17:53:43;3.50;99.90
29241;DHT22;16268;49.880;8.648;2023-01-20T17:56:09;3.50;99.90
29241;DHT22;16268;49.880;8.648;2023-01-20T17:58:35;3.40;99.90
29241;DHT22;16268;49.880;8.648;2023-01-20T18:01:12;3.40;99.90
29241;DHT22;16268;49.880;8.648;2023-01-20T18:03:40;3.30;99.90
29241;DHT22;16268;49.880;8.648;2023-01-20T18:06:07;3.30;99.90
29241;DHT22;16268;49.880;8.648;2023-01-20T18:08:33;3.40;99.90
29241;DHT22;16268;49.880;8.648;2023-01-20T18:11:10;3.40;99.90